Time;durP1;ratioP1;P1;durP2;ratioP2;P2;SDS_P1;SDS_P2;PMS_P1;PMS_P2;Temp;Humidity;BMP_temperature;BMP_pressure;BME280_temperature;BME280_humidity;BME280_pressure;Samples;Min_cycle;Max_cycle;Signal;HPM_P1;HPM_P2
2022/01/24 00:00:23;;;;;;;14.65;6.85;;;;;;;;;;4965956;28;20523;-74
2022/01/24 00:02:50;;;;;;;15.55;7.07;;;;;;;;;;4936854;29;20016;-74
2022/01/24 00:05:17;;;;;;;12.95;6.88;;;;;;;;;;4935755;29;20023;-74
2022/01/24 00:07:43;;;;;;;11.88;6.55;;;;;;;;;;4935820;29;20039;-74
2022/01/24 00:10:15;;;;;;;16.42;7.38;;;;;;;;;;4935903;29;20492;-73
2022/01/24 00:28:39;;;;;;;12.95;6.30;;;;;;;;;;4913242;29;20044;-74
2022/01/24 00:31:05;;;;;;;15.55;6.30;;;;;;;;;;4912919;29;20042;-74
2022/01/24 00:33:31;;;;;;;17.48;7.22;;;;;;;;;;4913349;29;20044;-74
2022/01/24 00:35:57;;;;;;;14.95;6.90;;;;;;;;;;4914748;29;20048;-74
2022/01/24 00:38:24;;;;;;;16.33;6.60;;;;;;;;;;4913653;29;20032;-74
2022/01/24 00:40:50;;;;;;;19.13;8.25;;;;;;;;;;4913042;29;20095;-73
2022/01/24 00:45:58;;;;;;;15.45;6.90;;;;;;;;;;4912932;29;20032;-74
2022/01/24 00:56:53;;;;;;;16.33;7.00;;;;;;;;;;4933763;29;20036;-74
2022/01/24 00:59:19;;;;;;;12.00;5.47;;;;;;;;;;4947886;29;20030;-74
2022/01/24 01:01:46;;;;;;;13.38;6.43;;;;;;;;;;4932791;29;20039;-74
2022/01/24 01:04:12;;;;;;;8.73;4.97;;;;;;;;;;4932827;29;20028;-73
2022/01/24 01:06:42;;;;;;;10.63;4.88;;;;;;;;;;4932419;29;20148;-73
2022/01/24 01:20:10;;;;;;;30.25;9.80;;;;;;;;;;4932427;29;20563;-74
2022/01/24 01:22:36;;;;;;;42.67;13.55;;;;;;;;;;4932517;29;20042;-74
2022/01/24 01:25:03;;;;;;;20.92;7.53;;;;;;;;;;4932442;29;20456;-73
2022/01/24 01:27:37;;;;;;;13.80;6.07;;;;;;;;;;4933753;29;20050;-74
2022/01/24 01:30:15;;;;;;;12.52;5.85;;;;;;;;;;4934838;29;20502;-74
2022/01/24 01:38:28;;;;;;;12.57;6.00;;;;;;;;;;4934342;29;20044;-74
2022/01/24 01:57:13;;;;;;;15.52;7.63;;;;;;;;;;4934343;29;20035;-74
2022/01/24 01:59:39;;;;;;;14.80;7.82;;;;;;;;;;4935024;29;20035;-74
2022/01/24 02:02:05;;;;;;;18.85;7.35;;;;;;;;;;4934383;29;20030;-74
2022/01/24 02:04:32;;;;;;;9.60;5.00;;;;;;;;;;4934169;29;20408;-74
2022/01/24 02:06:58;;;;;;;10.57;5.22;;;;;;;;;;4934231;28;20050;-73
2022/01/24 02:09:31;;;;;;;12.93;4.60;;;;;;;;;;4934141;29;20032;-73
2022/01/24 02:11:58;;;;;;;10.38;4.55;;;;;;;;;;4933967;29;20039;-73
2022/01/24 02:14:31;;;;;;;12.95;4.85;;;;;;;;;;4934663;29;20031;-74
2022/01/24 02:17:06;;;;;;;8.85;4.38;;;;;;;;;;4934010;29;20489;-73
2022/01/24 02:24:39;;;;;;;11.55;5.68;;;;;;;;;;4934123;29;20032;-73
2022/01/24 02:27:05;;;;;;;14.32;5.55;;;;;;;;;;4935192;29;20038;-74
2022/01/24 02:32:11;;;;;;;9.88;4.45;;;;;;;;;;4937536;29;20039;-73
2022/01/24 02:34:41;;;;;;;9.02;4.40;;;;;;;;;;4937650;29;20023;-74
2022/01/24 02:37:09;;;;;;;9.63;3.90;;;;;;;;;;4937582;29;20023;-73
2022/01/24 02:39:49;;;;;;;12.30;4.85;;;;;;;;;;4937326;29;20511;-74
2022/01/24 02:53:25;;;;;;;7.85;4.10;;;;;;;;;;4937246;29;20039;-73
2022/01/24 02:55:51;;;;;;;7.20;4.13;;;;;;;;;;4936774;28;20071;-74
2022/01/24 02:58:19;;;;;;;7.63;3.70;;;;;;;;;;4937264;29;20078;-74
2022/01/24 03:00:47;;;;;;;7.57;4.03;;;;;;;;;;4937365;29;20014;-74
2022/01/24 03:03:13;;;;;;;9.18;4.05;;;;;;;;;;4937232;29;20023;-74
2022/01/24 03:05:39;;;;;;;8.27;4.13;;;;;;;;;;4937703;29;20019;-73
2022/01/24 03:08:06;;;;;;;7.65;3.65;;;;;;;;;;4936882;29;20028;-74
2022/01/24 03:10:40;;;;;;;9.77;3.60;;;;;;;;;;4936494;29;20039;-73
2022/01/24 03:15:52;;;;;;;7.25;3.70;;;;;;;;;;4936983;29;20031;-74
2022/01/24 03:18:19;;;;;;;9.55;4.32;;;;;;;;;;4936736;29;20028;-73
2022/01/24 03:20:45;;;;;;;7.07;3.75;;;;;;;;;;4937300;29;20028;-74
2022/01/24 03:23:12;;;;;;;8.27;4.30;;;;;;;;;;4936411;29;20473;-73
2022/01/24 03:25:39;;;;;;;10.90;4.50;;;;;;;;;;4936684;29;20036;-73
2022/01/24 03:28:05;;;;;;;7.43;3.67;;;;;;;;;;4936498;29;20036;-74
2022/01/24 03:30:32;;;;;;;7.72;4.18;;;;;;;;;;4936533;29;20038;-73
2022/01/24 03:32:58;;;;;;;10.02;3.85;;;;;;;;;;4936950;29;20027;-74
2022/01/24 03:35:25;;;;;;;7.15;3.72;;;;;;;;;;4936802;29;20400;-73
2022/01/24 03:37:52;;;;;;;8.40;4.30;;;;;;;;;;4935819;29;20023;-74
2022/01/24 03:40:18;;;;;;;9.40;4.00;;;;;;;;;;4936524;29;20031;-74
2022/01/24 03:42:45;;;;;;;8.18;3.70;;;;;;;;;;4936424;29;20034;-73
2022/01/24 03:45:12;;;;;;;7.10;3.58;;;;;;;;;;4936344;29;20031;-73
2022/01/24 03:48:02;;;;;;;8.23;4.00;;;;;;;;;;4937325;29;20079;-73
2022/01/24 03:50:29;;;;;;;10.88;4.60;;;;;;;;;;4936608;29;20039;-74
2022/01/24 03:52:55;;;;;;;6.95;4.20;;;;;;;;;;4936068;29;20036;-73
2022/01/24 03:55:22;;;;;;;6.43;3.88;;;;;;;;;;4936110;29;20016;-73
2022/01/24 03:57:48;;;;;;;5.43;3.67;;;;;;;;;;4936067;29;20718;-73
2022/01/24 04:00:14;;;;;;;6.18;3.50;;;;;;;;;;4936329;29;20024;-73
2022/01/24 04:02:41;;;;;;;8.85;3.50;;;;;;;;;;4936850;29;20027;-74
2022/01/24 04:05:08;;;;;;;6.32;3.13;;;;;;;;;;4935897;29;20473;-73
2022/01/24 04:07:34;;;;;;;8.18;3.22;;;;;;;;;;4935454;29;20047;-73
2022/01/24 04:10:06;;;;;;;5.88;3.05;;;;;;;;;;4935815;29;20045;-73
2022/01/24 04:12:34;;;;;;;6.68;3.13;;;;;;;;;;4935785;28;20050;-73
2022/01/24 04:15:23;;;;;;;6.95;3.28;;;;;;;;;;4936188;29;20416;-73
2022/01/24 04:17:58;;;;;;;10.90;5.35;;;;;;;;;;4936598;29;20477;-73
2022/01/24 04:23:18;;;;;;;7.78;3.80;;;;;;;;;;4935260;29;20024;-74
2022/01/24 04:25:44;;;;;;;7.28;4.18;;;;;;;;;;4935500;29;20495;-74
2022/01/24 04:28:10;;;;;;;8.77;4.43;;;;;;;;;;4935419;29;20078;-73
2022/01/24 04:30:37;;;;;;;9.40;4.45;;;;;;;;;;4935279;29;20027;-73
2022/01/24 04:33:03;;;;;;;7.22;4.10;;;;;;;;;;4936105;29;20036;-73
2022/01/24 04:35:29;;;;;;;5.85;3.90;;;;;;;;;;4934562;29;20035;-73
2022/01/24 04:37:56;;;;;;;7.30;3.58;;;;;;;;;;4935278;29;20035;-74
2022/01/24 04:40:25;;;;;;;8.13;3.95;;;;;;;;;;4953894;28;20063;-74
2022/01/24 04:43:01;;;;;;;8.20;3.85;;;;;;;;;;4935264;29;20015;-73
2022/01/24 04:51:00;;;;;;;12.52;4.10;;;;;;;;;;4932782;29;20040;-73
2022/01/24 04:53:46;;;;;;;8.48;4.00;;;;;;;;;;4935334;29;20027;-74
2022/01/24 04:56:12;;;;;;;7.55;3.85;;;;;;;;;;4935179;29;20031;-73
2022/01/24 04:58:39;;;;;;;10.88;3.88;;;;;;;;;;4935162;29;20396;-73
2022/01/24 05:01:05;;;;;;;8.60;3.40;;;;;;;;;;4934943;29;20028;-74
2022/01/24 05:03:31;;;;;;;8.88;3.35;;;;;;;;;;4966439;28;20038;-73
2022/01/24 05:05:58;;;;;;;6.75;3.30;;;;;;;;;;4934863;29;20050;-74
2022/01/24 05:08:24;;;;;;;8.30;3.45;;;;;;;;;;4935318;29;20487;-74
2022/01/24 05:11:06;;;;;;;12.00;4.80;;;;;;;;;;4965458;28;20050;-73
2022/01/24 05:24:34;;;;;;;6.88;3.60;;;;;;;;;;4934748;29;20400;-73
2022/01/24 05:27:00;;;;;;;7.50;3.60;;;;;;;;;;4934773;29;20381;-73
2022/01/24 05:29:27;;;;;;;10.32;4.07;;;;;;;;;;4935078;29;20424;-73
2022/01/24 05:31:55;;;;;;;6.30;3.35;;;;;;;;;;4934478;29;20040;-74
2022/01/24 05:34:21;;;;;;;9.45;3.65;;;;;;;;;;4934256;29;20030;-73
2022/01/24 05:36:49;;;;;;;8.65;4.00;;;;;;;;;;4934758;29;20040;-74
2022/01/24 05:39:15;;;;;;;9.25;4.15;;;;;;;;;;4934322;29;20034;-74
2022/01/24 05:41:42;;;;;;;8.43;4.32;;;;;;;;;;4935302;29;20028;-73
2022/01/24 05:44:08;;;;;;;7.10;3.63;;;;;;;;;;4934334;29;20457;-73
2022/01/24 05:46:35;;;;;;;6.18;3.25;;;;;;;;;;4934280;29;20495;-73
2022/01/24 05:49:02;;;;;;;8.65;3.78;;;;;;;;;;4933961;29;20531;-73
2022/01/24 05:51:29;;;;;;;6.78;4.10;;;;;;;;;;4934364;29;20043;-74
2022/01/24 05:53:55;;;;;;;4.82;3.10;;;;;;;;;;4935622;29;20131;-73
2022/01/24 05:56:22;;;;;;;6.75;3.28;;;;;;;;;;4934746;29;20034;-74
2022/01/24 05:58:48;;;;;;;9.48;3.20;;;;;;;;;;4934517;29;20127;-73
2022/01/24 06:01:14;;;;;;;19.58;7.03;;;;;;;;;;4936231;29;20024;-73
2022/01/24 06:03:41;;;;;;;27.75;11.57;;;;;;;;;;4938088;29;20015;-73
2022/01/24 06:06:08;;;;;;;64.18;22.02;;;;;;;;;;4938222;29;20493;-73
2022/01/24 06:08:35;;;;;;;73.35;26.40;;;;;;;;;;4939061;29;20031;-73
2022/01/24 06:11:01;;;;;;;17.90;8.40;;;;;;;;;;4937889;29;20039;-73
2022/01/24 06:13:28;;;;;;;7.95;4.40;;;;;;;;;;4938257;29;20020;-73
2022/01/24 06:15:55;;;;;;;8.20;4.63;;;;;;;;;;4938208;29;20024;-73
2022/01/24 06:18:25;;;;;;;9.23;4.90;;;;;;;;;;4937945;29;20024;-73
2022/01/24 06:20:52;;;;;;;10.10;5.80;;;;;;;;;;4938637;29;20082;-73
2022/01/24 06:23:19;;;;;;;13.25;7.65;;;;;;;;;;4937833;29;20036;-73
2022/01/24 06:25:45;;;;;;;9.30;6.00;;;;;;;;;;4937985;29;20020;-74
2022/01/24 06:28:12;;;;;;;14.70;7.20;;;;;;;;;;4937961;29;20026;-73
2022/01/24 06:30:38;;;;;;;106.22;47.15;;;;;;;;;;4937554;29;20039;-73
2022/01/24 06:33:05;;;;;;;54.25;25.02;;;;;;;;;;4937606;29;20028;-74
2022/01/24 06:35:31;;;;;;;75.38;35.55;;;;;;;;;;4937885;29;20035;-74
2022/01/24 06:37:57;;;;;;;95.90;45.58;;;;;;;;;;4933756;29;20028;-73
2022/01/24 06:40:24;;;;;;;34.13;15.93;;;;;;;;;;4936774;29;20020;-74
2022/01/24 06:42:50;;;;;;;33.03;15.57;;;;;;;;;;4937338;29;20027;-73
2022/01/24 06:45:16;;;;;;;50.17;23.50;;;;;;;;;;4936832;29;20035;-73
2022/01/24 06:47:44;;;;;;;53.72;24.83;;;;;;;;;;4937289;29;20024;-74
2022/01/24 06:50:11;;;;;;;40.85;20.45;;;;;;;;;;4936743;29;20043;-73
2022/01/24 06:52:37;;;;;;;24.60;12.60;;;;;;;;;;4936878;29;20094;-73
2022/01/24 06:55:04;;;;;;;17.60;9.50;;;;;;;;;;4936876;29;20028;-73
2022/01/24 06:57:30;;;;;;;12.98;6.22;;;;;;;;;;4936789;29;20036;-73
2022/01/24 06:59:57;;;;;;;10.20;5.20;;;;;;;;;;4936235;29;20027;-73
2022/01/24 07:02:23;;;;;;;17.50;4.88;;;;;;;;;;4936852;29;20035;-74
2022/01/24 07:04:49;;;;;;;10.75;4.90;;;;;;;;;;4936596;29;20030;-73
2022/01/24 07:07:16;;;;;;;8.55;4.13;;;;;;;;;;4936548;29;20057;-74
2022/01/24 07:09:44;;;;;;;17.42;5.40;;;;;;;;;;4936663;29;20030;-73
2022/01/24 07:12:10;;;;;;;28.92;16.92;;;;;;;;;;4933017;29;20032;-73
2022/01/24 07:14:38;;;;;;;35.60;14.68;;;;;;;;;;4934974;29;20452;-73
2022/01/24 07:17:29;;;;;;;25.70;11.43;;;;;;;;;;4955523;28;20493;-73
2022/01/24 07:19:50;;;;;;;17.52;8.73;;;;;;;;;;4936347;29;20412;-73
2022/01/24 07:22:17;;;;;;;13.52;7.25;;;;;;;;;;4928802;29;20038;-74
2022/01/24 07:24:43;;;;;;;23.42;8.93;;;;;;;;;;4936218;29;20425;-74
2022/01/24 07:27:09;;;;;;;17.60;6.70;;;;;;;;;;4935717;29;20031;-73
2022/01/24 07:29:36;;;;;;;12.90;5.72;;;;;;;;;;4936714;29;20397;-73
2022/01/24 07:32:02;;;;;;;9.73;4.90;;;;;;;;;;4935901;29;20078;-73
2022/01/24 07:34:28;;;;;;;9.27;5.05;;;;;;;;;;4935788;29;20024;-73
2022/01/24 07:36:55;;;;;;;28.80;10.52;;;;;;;;;;4935631;29;20028;-72
2022/01/24 07:39:22;;;;;;;20.45;6.70;;;;;;;;;;4935828;29;20428;-73
2022/01/24 07:41:50;;;;;;;23.33;8.05;;;;;;;;;;4934868;29;20030;-74
2022/01/24 07:44:17;;;;;;;32.95;12.77;;;;;;;;;;4934763;29;20032;-73
2022/01/24 07:46:44;;;;;;;55.92;19.88;;;;;;;;;;4934967;29;20026;-73
2022/01/24 07:49:13;;;;;;;52.63;17.17;;;;;;;;;;4949698;29;20023;-73
2022/01/24 07:51:39;;;;;;;60.95;20.27;;;;;;;;;;4935253;29;20048;-74
2022/01/24 07:54:06;;;;;;;43.40;17.08;;;;;;;;;;4963536;28;20030;-74
2022/01/24 07:56:33;;;;;;;81.30;25.30;;;;;;;;;;4935715;29;20024;-73
2022/01/24 07:58:59;;;;;;;51.10;15.55;;;;;;;;;;4935139;29;20039;-73
2022/01/24 08:01:26;;;;;;;30.52;11.68;;;;;;;;;;4933773;29;20074;-73
2022/01/24 08:03:53;;;;;;;24.02;8.90;;;;;;;;;;4935758;29;20024;-74
2022/01/24 08:06:19;;;;;;;26.88;8.73;;;;;;;;;;4934563;29;20054;-73
2022/01/24 08:08:45;;;;;;;22.02;9.13;;;;;;;;;;4935398;29;20408;-74
2022/01/24 08:11:12;;;;;;;31.58;12.18;;;;;;;;;;4935262;29;20511;-73
2022/01/24 08:13:38;;;;;;;26.45;11.15;;;;;;;;;;4934311;29;20120;-74
2022/01/24 08:16:05;;;;;;;22.80;9.50;;;;;;;;;;4936177;29;20054;-76
2022/01/24 08:18:31;;;;;;;20.35;7.60;;;;;;;;;;4933100;29;20428;-75
2022/01/24 08:20:58;;;;;;;13.88;7.10;;;;;;;;;;4934847;29;20039;-75
2022/01/24 08:23:24;;;;;;;21.20;8.45;;;;;;;;;;4933091;29;20032;-76
2022/01/24 08:25:50;;;;;;;19.73;9.95;;;;;;;;;;4933114;29;20028;-76
2022/01/24 08:28:17;;;;;;;26.20;11.02;;;;;;;;;;4933088;29;20023;-76
2022/01/24 08:30:44;;;;;;;30.92;13.25;;;;;;;;;;4948480;29;20035;-76
2022/01/24 08:33:11;;;;;;;23.92;11.20;;;;;;;;;;4957056;28;20541;-77
2022/01/24 08:35:37;;;;;;;21.98;8.40;;;;;;;;;;4934426;29;20045;-77
2022/01/24 08:38:04;;;;;;;18.23;6.85;;;;;;;;;;4933310;29;20493;-77
2022/01/24 08:40:32;;;;;;;19.98;7.88;;;;;;;;;;4933581;29;20024;-76
2022/01/24 08:43:05;;;;;;;17.17;8.85;;;;;;;;;;4932894;29;20523;-77
2022/01/24 08:45:50;;;;;;;13.02;6.82;;;;;;;;;;4933402;29;20395;-77
2022/01/24 08:48:21;;;;;;;15.45;6.95;;;;;;;;;;4933938;29;20038;-77
2022/01/24 08:50:47;;;;;;;;;;;;;;;;;;4934200;29;20043;-77
2022/01/24 08:53:14;;;;;;;14.90;6.93;;;;;;;;;;4963874;28;19910;-77
2022/01/24 08:55:40;;;;;;;12.57;6.68;;;;;;;;;;4931618;29;20488;-78
2022/01/24 08:58:08;;;;;;;15.45;6.72;;;;;;;;;;4932741;29;20015;-78
2022/01/24 09:00:34;;;;;;;12.77;6.47;;;;;;;;;;4933212;29;20028;-77
2022/01/24 09:03:00;;;;;;;12.43;6.72;;;;;;;;;;4933303;29;20023;-78
2022/01/24 09:05:34;;;;;;;13.68;5.63;;;;;;;;;;4933962;29;20028;-77
2022/01/24 09:08:00;;;;;;;11.80;5.32;;;;;;;;;;4933182;29;20051;-77
2022/01/24 09:10:27;;;;;;;11.90;6.07;;;;;;;;;;4932936;29;20047;-78
2022/01/24 09:12:53;;;;;;;9.43;4.90;;;;;;;;;;4933254;29;20035;-77
2022/01/24 09:15:20;;;;;;;9.95;5.05;;;;;;;;;;4932853;29;20032;-78
2022/01/24 09:17:46;;;;;;;14.80;4.85;;;;;;;;;;4933352;29;20032;-78
2022/01/24 09:20:13;;;;;;;12.45;5.38;;;;;;;;;;4936678;29;20034;-77
2022/01/24 09:22:39;;;;;;;9.75;5.68;;;;;;;;;;4938687;29;20016;-78
2022/01/24 09:25:06;;;;;;;6.55;4.38;;;;;;;;;;4932979;29;20016;-78
2022/01/24 09:27:33;;;;;;;9.35;4.45;;;;;;;;;;4933206;29;20032;-77
2022/01/24 09:29:59;;;;;;;8.50;4.47;;;;;;;;;;4933088;29;20392;-78
2022/01/24 09:32:27;;;;;;;9.07;4.60;;;;;;;;;;4929193;29;20052;-77
2022/01/24 09:34:53;;;;;;;7.07;4.00;;;;;;;;;;4949801;28;20019;-77
2022/01/24 09:37:20;;;;;;;12.73;4.35;;;;;;;;;;4930896;29;20054;-75
2022/01/24 09:39:46;;;;;;;7.30;4.30;;;;;;;;;;4930660;29;20028;-74
2022/01/24 09:42:15;;;;;;;8.63;4.28;;;;;;;;;;4932461;29;20024;-75
2022/01/24 09:44:42;;;;;;;7.18;4.22;;;;;;;;;;4933166;29;20509;-75
2022/01/24 09:47:08;;;;;;;5.70;4.18;;;;;;;;;;4931927;29;20050;-74
2022/01/24 09:49:34;;;;;;;12.65;5.07;;;;;;;;;;4931923;29;20034;-75
2022/01/24 09:52:01;;;;;;;17.50;5.07;;;;;;;;;;4932352;29;20032;-74
2022/01/24 09:54:27;;;;;;;10.50;6.10;;;;;;;;;;4932468;29;20031;-75
2022/01/24 09:56:54;;;;;;;9.43;4.68;;;;;;;;;;4932313;29;20028;-75
2022/01/24 09:59:20;;;;;;;11.82;4.70;;;;;;;;;;4932485;29;20038;-74
2022/01/24 10:01:46;;;;;;;10.40;5.07;;;;;;;;;;4932014;28;20028;-75
2022/01/24 10:04:17;;;;;;;12.80;4.32;;;;;;;;;;4931411;29;20038;-77
2022/01/24 10:07:23;;;;;;;11.23;5.80;;;;;;;;;;4932601;28;20520;-78
2022/01/24 10:09:53;;;;;;;7.88;4.78;;;;;;;;;;4911125;29;20503;-77
2022/01/24 10:18:04;;;;;;;6.90;4.07;;;;;;;;;;4918861;29;20042;-77
2022/01/24 10:20:32;;;;;;;9.27;4.45;;;;;;;;;;4915858;29;20054;-78
2022/01/24 10:23:09;;;;;;;8.38;4.07;;;;;;;;;;4915775;29;20038;-74
2022/01/24 10:25:45;;;;;;;6.63;4.40;;;;;;;;;;4917611;29;20094;-74
2022/01/24 10:28:12;;;;;;;8.38;4.82;;;;;;;;;;4922082;29;20039;-74
2022/01/24 10:30:38;;;;;;;6.00;4.13;;;;;;;;;;4913261;29;20028;-74
2022/01/24 10:33:04;;;;;;;7.75;3.78;;;;;;;;;;4914030;29;20062;-74
2022/01/24 10:35:42;;;;;;;9.60;4.57;;;;;;;;;;4916651;29;20043;-75
2022/01/24 10:38:52;;;;;;;9.52;4.60;;;;;;;;;;4915568;29;20524;-75
2022/01/24 10:41:28;;;;;;;7.82;4.70;;;;;;;;;;4927178;29;20051;-75
2022/01/24 10:43:56;;;;;;;5.80;3.90;;;;;;;;;;4932719;29;20493;-75
2022/01/24 10:59:07;;;;;;;8.80;4.45;;;;;;;;;;5094939;27;20456;-75
2022/01/24 11:01:34;;;;;;;11.98;5.07;;;;;;;;;;5048548;28;20029;-75
2022/01/24 11:04:01;;;;;;;9.73;5.00;;;;;;;;;;5049758;28;20021;-76
2022/01/24 11:06:33;;;;;;;10.52;4.55;;;;;;;;;;5042038;28;20041;-76
2022/01/24 11:09:19;;;;;;;8.70;4.57;;;;;;;;;;5044834;28;20045;-76
2022/01/24 11:11:46;;;;;;;5.50;4.05;;;;;;;;;;5059143;28;20538;-76
2022/01/24 11:14:16;;;;;;;9.35;3.90;;;;;;;;;;5059037;28;20544;-76
2022/01/24 11:16:43;;;;;;;15.18;6.80;;;;;;;;;;5052167;28;20072;-76
2022/01/24 11:19:19;;;;;;;13.43;7.45;;;;;;;;;;5048118;28;20388;-76
2022/01/24 11:21:45;;;;;;;9.88;4.68;;;;;;;;;;5047030;28;20036;-76
2022/01/24 11:24:17;;;;;;;16.30;5.28;;;;;;;;;;5044079;28;20022;-76
2022/01/24 11:26:44;;;;;;;10.75;4.35;;;;;;;;;;5043878;28;20035;-76
2022/01/24 11:29:11;;;;;;;14.48;3.78;;;;;;;;;;5047821;28;20025;-76
2022/01/24 11:31:58;;;;;;;9.60;5.90;;;;;;;;;;5049409;28;20035;-76
2022/01/24 11:34:31;;;;;;;12.00;6.68;;;;;;;;;;5023658;28;20041;-76
2022/01/24 11:36:58;;;;;;;9.25;4.22;;;;;;;;;;5023486;28;20458;-75
2022/01/24 11:39:25;;;;;;;9.15;5.82;;;;;;;;;;5023318;28;20037;-76
2022/01/24 11:41:51;;;;;;;7.20;4.20;;;;;;;;;;5021227;28;20496;-76
2022/01/24 11:44:20;;;;;;;7.40;4.32;;;;;;;;;;5022862;28;20032;-75
2022/01/24 11:46:52;;;;;;;6.30;4.15;;;;;;;;;;5023495;28;20084;-76
2022/01/24 11:49:19;;;;;;;7.30;4.85;;;;;;;;;;5023564;28;20030;-76
2022/01/24 11:51:47;;;;;;;5.57;3.70;;;;;;;;;;5023759;28;20434;-76
2022/01/24 11:54:32;;;;;;;6.60;4.57;;;;;;;;;;5023796;28;20041;-76
2022/01/24 11:57:18;;;;;;;5.90;4.35;;;;;;;;;;5023294;28;20049;-76
2022/01/24 11:59:45;;;;;;;14.27;4.22;;;;;;;;;;5012287;28;20050;-76
2022/01/24 12:02:12;;;;;;;6.57;4.25;;;;;;;;;;5010098;28;20048;-76
2022/01/24 12:04:58;;;;;;;6.45;4.35;;;;;;;;;;5009402;28;20145;-76
2022/01/24 12:07:29;;;;;;;5.18;3.70;;;;;;;;;;5010694;28;20084;-76
2022/01/24 12:09:56;;;;;;;10.77;3.60;;;;;;;;;;5010951;28;20216;-75
2022/01/24 12:12:45;;;;;;;5.28;3.63;;;;;;;;;;5028232;28;20048;-76
2022/01/24 12:15:32;;;;;;;5.78;3.28;;;;;;;;;;5031428;28;20099;-75
2022/01/24 12:18:01;;;;;;;9.32;4.35;;;;;;;;;;5046747;28;20117;-76
2022/01/24 12:20:30;;;;;;;6.93;4.03;;;;;;;;;;5035667;28;20033;-75
2022/01/24 12:22:57;;;;;;;7.05;3.20;;;;;;;;;;5034782;28;20039;-75
2022/01/24 12:25:42;;;;;;;8.43;4.03;;;;;;;;;;5031761;28;20017;-76
2022/01/24 12:28:15;;;;;;;4.75;3.53;;;;;;;;;;5038127;28;20021;-76
2022/01/24 12:31:01;;;;;;;8.23;3.63;;;;;;;;;;5032871;28;20027;-74
2022/01/24 12:33:53;;;;;;;4.80;3.40;;;;;;;;;;5031050;28;20051;-74
2022/01/24 12:36:52;;;;;;;6.47;3.80;;;;;;;;;;5028639;28;20050;-75
2022/01/24 12:39:32;;;;;;;9.55;3.53;;;;;;;;;;5022568;28;20034;-75
2022/01/24 12:42:01;;;;;;;10.27;3.70;;;;;;;;;;5028287;28;20021;-74
2022/01/24 12:47:06;;;;;;;7.55;3.30;;;;;;;;;;5033224;28;20025;-75
2022/01/24 12:49:32;;;;;;;3.50;2.65;;;;;;;;;;5032994;28;20033;-75
2022/01/24 12:52:00;;;;;;;7.22;3.25;;;;;;;;;;5033706;28;20013;-75
2022/01/24 12:54:33;;;;;;;4.10;2.63;;;;;;;;;;5030318;28;20430;-75
2022/01/24 12:57:05;;;;;;;4.55;2.95;;;;;;;;;;5032750;28;20049;-75
2022/01/24 12:59:32;;;;;;;6.13;2.83;;;;;;;;;;5045122;28;20029;-76
2022/01/24 13:02:02;;;;;;;6.05;3.20;;;;;;;;;;5064045;28;20025;-76
2022/01/24 13:04:35;;;;;;;6.35;3.58;;;;;;;;;;5035302;28;20575;-75
2022/01/24 13:07:02;;;;;;;5.80;2.92;;;;;;;;;;5042517;28;20495;-75
2022/01/24 13:09:28;;;;;;;5.85;4.05;;;;;;;;;;5029961;28;20048;-75
2022/01/24 13:12:04;;;;;;;9.43;4.55;;;;;;;;;;5033015;28;20043;-75
2022/01/24 13:14:41;;;;;;;5.60;3.90;;;;;;;;;;5034676;28;20025;-75
2022/01/24 13:25:22;;;;;;;4.45;2.70;;;;;;;;;;5031731;28;20029;-74
2022/01/24 13:27:56;;;;;;;6.15;2.72;;;;;;;;;;5014641;28;20509;-73
2022/01/24 13:30:23;;;;;;;5.85;2.78;;;;;;;;;;5014151;28;20026;-73
2022/01/24 13:32:58;;;;;;;5.65;2.78;;;;;;;;;;5034476;28;20444;-74
2022/01/24 13:35:34;;;;;;;4.25;3.10;;;;;;;;;;5035391;28;20029;-73
2022/01/24 13:38:03;;;;;;;6.63;2.55;;;;;;;;;;5028282;28;20083;-74
2022/01/24 13:40:32;;;;;;;7.95;3.38;;;;;;;;;;5033688;28;20051;-74
2022/01/24 13:42:58;;;;;;;9.43;2.75;;;;;;;;;;5029918;28;20025;-73
2022/01/24 13:45:25;;;;;;;12.90;3.10;;;;;;;;;;5028283;28;20346;-74
2022/01/24 13:48:01;;;;;;;7.82;3.28;;;;;;;;;;5045394;28;20021;-74
2022/01/24 13:50:28;;;;;;;3.42;2.60;;;;;;;;;;5032756;28;20031;-74
2022/01/24 13:52:54;;;;;;;3.72;2.70;;;;;;;;;;5031080;28;20033;-74
2022/01/24 13:55:23;;;;;;;6.50;2.80;;;;;;;;;;5032278;28;20514;-74
2022/01/24 13:57:51;;;;;;;5.63;3.00;;;;;;;;;;5027364;28;20458;-73
2022/01/24 14:00:22;;;;;;;7.07;3.10;;;;;;;;;;5021554;28;20499;-73
2022/01/24 14:02:50;;;;;;;3.35;2.70;;;;;;;;;;5034256;28;20560;-73
2022/01/24 14:05:17;;;;;;;7.07;3.17;;;;;;;;;;5032457;28;20024;-75
2022/01/24 14:07:43;;;;;;;9.45;3.47;;;;;;;;;;5033593;28;20043;-74
2022/01/24 14:10:11;;;;;;;10.88;3.38;;;;;;;;;;5032047;28;20033;-74
2022/01/24 14:12:43;;;;;;;9.27;3.50;;;;;;;;;;5029357;28;20038;-74
2022/01/24 14:15:18;;;;;;;13.80;3.67;;;;;;;;;;5029172;28;20053;-74
2022/01/24 14:18:05;;;;;;;10.68;3.17;;;;;;;;;;5038059;28;20036;-74
2022/01/24 14:20:32;;;;;;;13.00;3.13;;;;;;;;;;5035729;28;20521;-74
2022/01/24 14:22:58;;;;;;;6.18;2.85;;;;;;;;;;5030806;28;20376;-74
2022/01/24 14:25:26;;;;;;;4.97;2.80;;;;;;;;;;5031650;28;20036;-74
2022/01/24 14:27:54;;;;;;;6.65;2.92;;;;;;;;;;5030006;28;20036;-73
2022/01/24 14:30:26;;;;;;;9.15;2.92;;;;;;;;;;5027521;28;20778;-73
2022/01/24 14:33:02;;;;;;;6.78;3.60;;;;;;;;;;5032349;28;20033;-74
2022/01/24 14:35:30;;;;;;;7.05;3.80;;;;;;;;;;5030797;28;20067;-74
2022/01/24 14:37:58;;;;;;;6.82;3.75;;;;;;;;;;5031130;28;20380;-73
2022/01/24 14:40:34;;;;;;;6.50;3.50;;;;;;;;;;5031349;28;20036;-74
2022/01/24 14:45:45;;;;;;;7.75;3.70;;;;;;;;;;5032525;28;20079;-73
2022/01/24 14:48:12;;;;;;;8.13;3.40;;;;;;;;;;5027693;28;20034;-74
2022/01/24 14:50:38;;;;;;;6.88;3.33;;;;;;;;;;5045113;28;20029;-74
2022/01/24 14:53:07;;;;;;;8.07;3.70;;;;;;;;;;5032385;28;20442;-73
2022/01/24 14:55:34;;;;;;;26.80;11.80;;;;;;;;;;5033152;28;20030;-74
2022/01/24 14:58:01;;;;;;;8.23;4.13;;;;;;;;;;5029666;28;20442;-73
2022/01/24 15:00:27;;;;;;;14.70;6.03;;;;;;;;;;5028424;28;20395;-74
2022/01/24 15:02:55;;;;;;;11.15;4.75;;;;;;;;;;5032151;28;20040;-74
2022/01/24 15:05:21;;;;;;;9.63;3.95;;;;;;;;;;5032428;28;20488;-75
2022/01/24 15:07:48;;;;;;;10.88;4.13;;;;;;;;;;5027618;28;20030;-74
2022/01/24 15:10:15;;;;;;;6.47;3.72;;;;;;;;;;5031059;28;20021;-75
2022/01/24 15:12:47;;;;;;;9.85;4.20;;;;;;;;;;5029959;28;20051;-74
2022/01/24 15:15:17;;;;;;;12.52;4.43;;;;;;;;;;5028757;28;20042;-74
2022/01/24 15:25:43;;;;;;;22.25;8.50;;;;;;;;;;5032125;28;20032;-74
2022/01/24 15:28:12;;;;;;;13.13;6.88;;;;;;;;;;5031018;28;20032;-73
2022/01/24 15:30:40;;;;;;;13.85;5.80;;;;;;;;;;5030705;28;20035;-74
2022/01/24 15:33:06;;;;;;;18.05;7.60;;;;;;;;;;5029642;28;20025;-74
2022/01/24 15:35:33;;;;;;;11.40;5.85;;;;;;;;;;5036801;28;20029;-73
2022/01/24 15:38:03;;;;;;;12.98;6.30;;;;;;;;;;5034422;28;20033;-74
2022/01/24 15:40:31;;;;;;;13.90;6.13;;;;;;;;;;5031171;28;20025;-74
2022/01/24 15:47:55;;;;;;;9.63;5.93;;;;;;;;;;5035755;28;20028;-74
2022/01/24 15:50:23;;;;;;;19.98;7.53;;;;;;;;;;5037108;28;20021;-73
2022/01/24 15:52:51;;;;;;;7.45;4.68;;;;;;;;;;5034459;28;20402;-73
2022/01/24 15:55:21;;;;;;;12.07;5.57;;;;;;;;;;5034934;28;20013;-74
2022/01/24 15:57:47;;;;;;;9.93;4.88;;;;;;;;;;5034771;28;20056;-73
2022/01/24 16:00:24;;;;;;;11.07;4.68;;;;;;;;;;5030360;28;20200;-74
2022/01/24 16:02:52;;;;;;;7.95;4.18;;;;;;;;;;5039396;28;20484;-74
2022/01/24 16:05:20;;;;;;;8.48;3.60;;;;;;;;;;5036255;28;20059;-74
2022/01/24 16:07:47;;;;;;;21.58;6.80;;;;;;;;;;5036175;28;20022;-74
2022/01/24 16:10:14;;;;;;;11.90;4.70;;;;;;;;;;5034782;28;20030;-74
2022/01/24 16:12:45;;;;;;;9.30;5.35;;;;;;;;;;5033111;28;20081;-74
2022/01/24 16:15:13;;;;;;;12.00;7.68;;;;;;;;;;5029405;28;20022;-74
2022/01/24 16:17:39;;;;;;;10.60;6.28;;;;;;;;;;5053092;28;20051;-74
2022/01/24 16:20:20;;;;;;;10.35;4.57;;;;;;;;;;5034954;28;20017;-74
2022/01/24 16:23:01;;;;;;;10.23;7.17;;;;;;;;;;5034845;28;20029;-74
2022/01/24 16:25:34;;;;;;;11.13;5.18;;;;;;;;;;5034105;28;20036;-73
2022/01/24 16:28:06;;;;;;;12.27;5.88;;;;;;;;;;5034418;28;20027;-73
2022/01/24 16:30:32;;;;;;;15.07;5.47;;;;;;;;;;5032538;28;20026;-73
2022/01/24 16:32:59;;;;;;;10.90;6.25;;;;;;;;;;5035067;28;20028;-74
2022/01/24 16:35:26;;;;;;;11.60;6.20;;;;;;;;;;5036333;28;20026;-74
2022/01/24 16:37:53;;;;;;;11.77;5.53;;;;;;;;;;5034948;28;20037;-74
2022/01/24 16:40:27;;;;;;;14.75;6.78;;;;;;;;;;5034611;28;20026;-74
2022/01/24 16:43:11;;;;;;;11.73;6.43;;;;;;;;;;5036204;28;20024;-74
2022/01/24 16:48:23;;;;;;;20.98;8.73;;;;;;;;;;5016209;28;20439;-74
2022/01/24 16:50:50;;;;;;;28.05;10.13;;;;;;;;;;5036795;28;20037;-74
2022/01/24 16:53:18;;;;;;;27.20;12.10;;;;;;;;;;5035589;28;20030;-74
2022/01/24 16:55:45;;;;;;;23.45;12.00;;;;;;;;;;5034347;28;20025;-74
2022/01/24 16:58:13;;;;;;;24.58;12.45;;;;;;;;;;5034417;28;20442;-73
2022/01/24 17:00:39;;;;;;;29.27;12.15;;;;;;;;;;5033060;28;20033;-73
2022/01/24 17:03:06;;;;;;;25.60;13.50;;;;;;;;;;5033445;28;20044;-74
2022/01/24 17:05:32;;;;;;;29.80;13.50;;;;;;;;;;5036396;28;20348;-74
2022/01/24 17:07:59;;;;;;;21.58;12.20;;;;;;;;;;5036123;28;20032;-74
2022/01/24 17:10:26;;;;;;;24.77;13.63;;;;;;;;;;5034455;28;20426;-74
2022/01/24 17:12:57;;;;;;;20.77;10.10;;;;;;;;;;5034772;28;20398;-74
2022/01/24 17:15:23;;;;;;;21.70;8.93;;;;;;;;;;5030969;28;20022;-74